Dog Valley, California Weather observations

Data are for 10 minute period ending at time listed.
 Day   Time    Ave.   Ave.  Ave.  Vector   Max.   Total    Solar   
  of    of     Air    Rel.  Wind   Wind    Wind  Precip.   Rad.    
Year   Day     Temp.  Hum.  Speed  Dir.    Gust                    
2016   (PST)    F      %     mph   deg.    mph     in.     W/m2    
------------------------------------------------------------------- 
  41    4:00   32.0    72    0.0   286      3.0   20.83       0  
  41    5:00   31.0    72    0.0   288      2.0   20.83       0  
  41    6:00   29.0    71    0.0   247      3.0   20.83       0  
  41    7:00   28.0    72    0.0   261      2.0   20.83       0  
  41    8:00   30.0    70    0.0   274      2.0   20.83      14  
  41    9:00   46.0    37    1.0   230      5.0   20.83      47  
  41   10:00   55.0    24    0.0   186      5.0   20.83     207  
  41   11:00   59.0    19    1.0   156      7.0   20.83     202  
  41   12:00   60.0    21    1.0   138      7.0   20.83     256  
  41   13:00   59.0    32    1.0   115      6.0   20.83     485  
  41   14:00   59.0    32    1.0   112      5.0   20.83     372  
  41   15:00   60.0    26    0.0   124      3.0   20.83     244  
  41   16:00   56.0    38    1.0   112      4.0   20.83     157  
  41   17:00   45.0    58    0.0   282      3.0   20.83      47  
  41   18:00   38.0    72    0.0   282      2.0   20.83       9  
  41   19:00   36.0    73    0.0   258      1.0   20.83       0  
  41   20:00   34.0    71    0.0   286      1.0   20.83       0  
  41   21:00   32.0    71    0.0   275      0.0   20.83       0  
  41   22:00   31.0    77    0.0   277      1.0   20.83       0  
  41   23:00   30.0    86    0.0   278      0.0   20.83       0  
  42    0:00   29.0    87    0.0   274      0.0   20.83       0  
  42    1:00   28.0    90    0.0   251      0.0   20.83       0  
  42    2:00   28.0    87    0.0   269      0.0   20.83       0  
  42    3:00   28.0    81    0.0   291      1.0   20.83       0  

Return to Dog Valley, California graphs page.


Western Regional Climate Center,wrcc@dri.edu